createdAt,value
2019-04-25T00:00:46.525Z,99.90
2019-04-25T00:03:16.810Z,99.90
2019-04-25T00:05:45.416Z,99.90
2019-04-25T00:08:13.955Z,99.90
2019-04-25T00:10:43.751Z,99.90
2019-04-25T00:13:12.656Z,99.90
2019-04-25T00:15:42.181Z,99.90
2019-04-25T00:18:11.915Z,99.90
2019-04-25T00:20:43.493Z,99.90
2019-04-25T00:23:13.838Z,99.90
2019-04-25T00:25:59.071Z,99.90
2019-04-25T00:28:27.960Z,99.90
2019-04-25T00:30:56.491Z,99.90
2019-04-25T00:33:24.945Z,99.90
2019-04-25T00:35:53.405Z,99.90
2019-04-25T00:38:22.261Z,99.90
2019-04-25T00:40:52.446Z,99.90
2019-04-25T00:43:21.524Z,99.90
2019-04-25T00:45:51.658Z,99.90
2019-04-25T00:48:20.323Z,99.90
2019-04-25T00:50:48.851Z,99.90
2019-04-25T00:53:17.321Z,99.90
2019-04-25T00:55:46.447Z,99.90
2019-04-25T00:58:16.890Z,99.90
2019-04-25T01:00:47.161Z,99.90
2019-04-25T01:03:17.519Z,99.90
2019-04-25T01:05:46.063Z,99.90
2019-04-25T01:08:14.727Z,99.90
2019-04-25T01:10:44.378Z,99.90
2019-04-25T01:13:13.135Z,99.90
2019-04-25T01:15:42.473Z,99.90
2019-04-25T01:18:12.288Z,99.90
2019-04-25T01:20:40.856Z,99.90
2019-04-25T01:23:09.390Z,99.90
2019-04-25T01:25:40.904Z,99.90
2019-04-25T01:28:08.143Z,99.90
2019-04-25T01:30:36.680Z,99.90
2019-04-25T01:33:06.173Z,99.90
2019-04-25T01:35:39.071Z,99.90
2019-04-25T01:38:15.445Z,99.90
2019-04-25T01:40:45.697Z,99.90
2019-04-25T01:43:15.931Z,99.90
2019-04-25T01:45:44.545Z,99.90
2019-04-25T01:48:13.660Z,99.90
2019-04-25T01:50:43.772Z,99.90
2019-04-25T01:53:12.445Z,99.90
2019-04-25T01:55:53.034Z,99.90
2019-04-25T01:58:11.572Z,99.90
2019-04-25T02:00:43.171Z,99.90
2019-04-25T02:03:13.523Z,99.90
2019-04-25T02:05:43.784Z,99.90
2019-04-25T02:08:14.188Z,99.90
2019-04-25T02:10:44.202Z,99.90
2019-04-25T02:13:14.387Z,99.90
2019-04-25T02:15:43.354Z,99.90
2019-04-25T02:18:13.623Z,99.90
2019-04-25T02:20:43.651Z,99.90
2019-04-25T02:23:14.020Z,99.90
2019-04-25T02:25:44.110Z,99.90
2019-04-25T02:28:13.972Z,99.90
2019-04-25T02:30:45.442Z,99.90
2019-04-25T02:33:14.308Z,99.90
2019-04-25T02:35:46.365Z,99.90
2019-04-25T02:38:16.585Z,99.90
2019-04-25T02:40:45.407Z,99.90
2019-04-25T02:43:14.249Z,99.90
2019-04-25T02:46:06.111Z,99.90
2019-04-25T02:48:49.987Z,99.90
2019-04-25T02:51:38.602Z,99.90
2019-04-25T02:54:08.179Z,99.90
2019-04-25T02:56:38.943Z,99.90
2019-04-25T02:59:09.069Z,99.90
2019-04-25T03:01:37.336Z,99.90
2019-04-25T03:04:10.697Z,99.90
2019-04-25T03:06:36.185Z,99.90
2019-04-25T03:09:09.795Z,99.90
2019-04-25T03:11:38.664Z,99.90
2019-04-25T03:14:09.992Z,99.90
2019-04-25T03:16:37.720Z,99.90
2019-04-25T03:19:10.676Z,99.90
2019-04-25T03:21:40.808Z,99.90
2019-04-25T03:24:12.927Z,99.90
2019-04-25T03:26:40.706Z,99.90
2019-04-25T03:29:09.453Z,99.90
2019-04-25T03:31:37.931Z,99.90
2019-04-25T03:34:10.206Z,99.90
2019-04-25T03:36:36.668Z,99.90
2019-04-25T03:39:07.058Z,99.90
2019-04-25T03:41:35.609Z,99.90
2019-04-25T03:44:05.405Z,99.90
2019-04-25T03:46:34.767Z,99.90
2019-04-25T03:49:04.923Z,99.90
2019-04-25T03:51:33.863Z,99.90
2019-04-25T03:54:04.475Z,99.90
2019-04-25T03:56:33.365Z,99.90
2019-04-25T03:59:04.830Z,99.90
2019-04-25T04:01:34.148Z,99.90
2019-04-25T04:04:05.427Z,99.90
2019-04-25T04:06:34.015Z,99.90
2019-04-25T04:09:04.596Z,99.90
2019-04-25T04:11:33.755Z,99.90
2019-04-25T04:14:04.928Z,99.90
2019-04-25T04:16:35.114Z,99.90
2019-04-25T04:19:04.867Z,99.90
2019-04-25T04:21:35.495Z,99.90
2019-04-25T04:24:08.476Z,99.90
2019-04-25T04:26:37.080Z,99.90
2019-04-25T04:29:05.943Z,99.90
2019-04-25T04:31:35.186Z,99.90
2019-04-25T04:34:03.876Z,99.90
2019-04-25T04:36:33.754Z,99.90
2019-04-25T04:39:03.824Z,99.90
2019-04-25T04:41:33.924Z,99.90
2019-04-25T04:44:04.037Z,99.90
2019-04-25T04:46:34.057Z,99.90
2019-04-25T04:49:03.937Z,99.90
2019-04-25T04:51:33.591Z,99.90
2019-04-25T04:54:03.452Z,99.90
2019-04-25T04:56:34.070Z,99.90
2019-04-25T04:59:03.692Z,99.90
2019-04-25T05:01:34.120Z,99.90
2019-04-25T05:04:17.099Z,99.90
2019-04-25T05:06:53.691Z,99.90
2019-04-25T05:09:24.577Z,99.90
2019-04-25T05:11:54.022Z,99.90
2019-04-25T05:14:23.904Z,99.90
2019-04-25T05:16:53.290Z,99.90
2019-04-25T05:19:22.413Z,99.90
2019-04-25T05:21:53.704Z,99.90
2019-04-25T05:24:24.929Z,99.90
2019-04-25T05:26:53.969Z,99.90
2019-04-25T05:29:24.139Z,99.90
2019-04-25T05:31:54.244Z,99.90
2019-04-25T05:34:24.684Z,99.90
2019-04-25T05:36:53.855Z,99.90
2019-04-25T05:39:24.066Z,99.90
2019-04-25T05:42:09.415Z,99.90
2019-04-25T05:44:38.033Z,99.90
2019-04-25T05:47:07.786Z,99.90
2019-04-25T05:49:36.338Z,99.90
2019-04-25T05:52:05.160Z,99.90
2019-04-25T05:54:35.624Z,99.90
2019-04-25T05:57:03.907Z,99.90
2019-04-25T05:59:33.795Z,99.90
2019-04-25T06:02:03.916Z,99.90
2019-04-25T06:04:33.548Z,99.90
2019-04-25T06:07:02.259Z,99.90
2019-04-25T06:09:38.433Z,99.90
2019-04-25T06:12:08.614Z,99.90
2019-04-25T06:14:37.060Z,99.90
2019-04-25T06:17:07.175Z,99.90
2019-04-25T06:19:39.713Z,99.90
2019-04-25T06:22:13.091Z,99.90
2019-04-25T06:24:54.211Z,99.90
2019-04-25T06:27:25.858Z,99.90
2019-04-25T06:29:59.133Z,99.90
2019-04-25T06:32:26.907Z,99.90
2019-04-25T06:34:55.485Z,99.90
2019-04-25T06:37:24.898Z,99.90
2019-04-25T06:39:54.397Z,99.90
2019-04-25T06:42:24.845Z,99.90
2019-04-25T06:45:04.383Z,99.90
2019-04-25T06:47:50.692Z,99.90
2019-04-25T06:50:19.215Z,99.90
2019-04-25T06:52:47.674Z,99.90
2019-04-25T06:55:20.917Z,99.90
2019-04-25T06:57:48.648Z,99.90
2019-04-25T07:00:19.131Z,99.90
2019-04-25T07:02:48.483Z,99.90
2019-04-25T07:05:26.417Z,99.90
2019-04-25T07:07:48.347Z,99.90
2019-04-25T07:10:16.975Z,99.90
2019-04-25T07:12:47.103Z,99.90
2019-04-25T07:15:16.809Z,99.90
2019-04-25T07:17:45.789Z,99.90
2019-04-25T07:20:16.533Z,99.90
2019-04-25T07:22:45.003Z,99.90
2019-04-25T07:25:14.481Z,99.90
2019-04-25T07:28:01.301Z,98.60
2019-04-25T07:30:51.940Z,99.90
2019-04-25T07:33:34.771Z,99.90
2019-04-25T07:36:04.953Z,99.90
2019-04-25T07:38:34.041Z,99.90
2019-04-25T07:41:03.734Z,99.60
2019-04-25T07:43:33.870Z,99.00
2019-04-25T07:46:03.367Z,99.90
2019-04-25T07:48:34.244Z,99.90
2019-04-25T07:51:03.880Z,99.90
2019-04-25T07:53:34.613Z,99.90
2019-04-25T07:56:04.168Z,99.90
2019-04-25T07:58:45.502Z,99.90
2019-04-25T08:01:07.119Z,99.90
2019-04-25T08:03:36.511Z,99.90
2019-04-25T08:06:05.327Z,99.90
2019-04-25T08:08:34.994Z,99.90
2019-04-25T08:11:07.197Z,99.90
2019-04-25T08:13:40.331Z,99.90
2019-04-25T08:16:10.422Z,99.90
2019-04-25T08:18:39.656Z,99.80
2019-04-25T08:21:08.108Z,99.90
2019-04-25T08:23:38.861Z,99.90
2019-04-25T08:26:07.458Z,99.90
2019-04-25T08:28:49.991Z,99.90
2019-04-25T08:31:08.242Z,99.90
2019-04-25T08:33:36.917Z,99.70
2019-04-25T08:36:09.090Z,99.70
2019-04-25T08:38:36.153Z,98.20
2019-04-25T08:41:04.707Z,99.70
2019-04-25T08:43:36.357Z,99.90
2019-04-25T08:46:04.199Z,99.30
2019-04-25T08:48:35.586Z,99.40
2019-04-25T08:51:08.802Z,99.90
2019-04-25T08:53:38.952Z,99.90
2019-04-25T08:56:13.329Z,99.90
2019-04-25T08:58:44.603Z,99.90
2019-04-25T09:01:21.440Z,99.90
2019-04-25T09:03:51.558Z,99.90
2019-04-25T09:06:20.179Z,99.60
2019-04-25T09:08:48.660Z,99.90
2019-04-25T09:11:17.963Z,99.90
2019-04-25T09:13:46.426Z,99.90
2019-04-25T09:16:15.582Z,99.90
2019-04-25T09:18:45.242Z,99.90
2019-04-25T09:21:14.046Z,99.30
2019-04-25T09:23:43.753Z,99.90
2019-04-25T09:26:14.309Z,99.90
2019-04-25T09:28:45.319Z,97.70
2019-04-25T09:31:13.968Z,97.80
2019-04-25T09:33:45.090Z,98.30
2019-04-25T09:36:14.156Z,99.90
2019-04-25T09:38:46.663Z,99.90
2019-04-25T09:41:13.840Z,99.80
2019-04-25T09:43:45.304Z,99.90
2019-04-25T09:46:15.366Z,97.20
2019-04-25T09:48:51.196Z,99.90
2019-04-25T09:51:21.284Z,98.60
2019-04-25T09:53:51.549Z,98.20
2019-04-25T09:56:26.084Z,98.00
2019-04-25T09:59:08.384Z,99.90
2019-04-25T10:01:37.942Z,95.40
2019-04-25T10:04:06.552Z,95.20
2019-04-25T10:06:35.242Z,96.20
2019-04-25T10:09:05.610Z,94.00
2019-04-25T10:11:34.508Z,94.60
2019-04-25T10:14:37.657Z,93.70
2019-04-25T10:17:06.563Z,96.50
2019-04-25T10:19:35.201Z,95.80
2019-04-25T10:22:03.836Z,95.00
2019-04-25T10:24:32.310Z,96.30
2019-04-25T10:27:01.108Z,92.60
2019-04-25T10:29:41.212Z,97.40
2019-04-25T10:32:01.183Z,93.60
2019-04-25T10:34:29.907Z,95.90
2019-04-25T10:36:58.929Z,96.20
2019-04-25T10:39:28.682Z,93.60
2019-04-25T10:41:57.259Z,90.30
2019-04-25T10:44:25.788Z,92.30
2019-04-25T10:46:54.688Z,92.40
2019-04-25T10:49:23.596Z,90.90
2019-04-25T10:51:52.477Z,89.90
2019-04-25T10:54:20.967Z,91.50
2019-04-25T10:56:49.445Z,92.60
2019-04-25T10:59:17.943Z,90.80
2019-04-25T11:01:47.296Z,95.40
2019-04-25T11:04:17.497Z,90.00
2019-04-25T11:06:47.137Z,92.90
2019-04-25T11:09:20.579Z,94.40
2019-04-25T11:11:50.321Z,92.40
2019-04-25T11:14:19.009Z,92.50
2019-04-25T11:16:48.381Z,93.00
2019-04-25T11:19:19.859Z,93.90
2019-04-25T11:21:48.321Z,94.60
2019-04-25T11:24:16.856Z,92.60
2019-04-25T11:26:49.924Z,93.70
2019-04-25T11:29:17.455Z,93.70
2019-04-25T11:31:48.852Z,92.00
2019-04-25T11:34:18.294Z,92.30
2019-04-25T11:36:46.897Z,89.20
2019-04-25T11:39:29.453Z,92.20
2019-04-25T11:41:57.972Z,92.80
2019-04-25T11:44:26.430Z,93.90
2019-04-25T11:46:55.016Z,90.90
2019-04-25T11:49:23.824Z,93.00
2019-04-25T11:51:52.491Z,92.50
2019-04-25T11:54:21.185Z,91.60
2019-04-25T11:56:50.690Z,91.20
2019-04-25T11:59:19.392Z,93.00
2019-04-25T12:01:50.097Z,90.60
2019-04-25T12:04:18.564Z,90.80
2019-04-25T12:06:47.562Z,91.20
2019-04-25T12:09:17.081Z,91.00
2019-04-25T12:11:46.867Z,92.10
2019-04-25T12:14:15.928Z,94.30
2019-04-25T12:16:47.760Z,91.40
2019-04-25T12:19:14.707Z,91.10
2019-04-25T12:21:43.736Z,96.10
2019-04-25T12:24:13.889Z,92.30
2019-04-25T12:26:45.266Z,94.80
2019-04-25T12:29:15.281Z,92.00
2019-04-25T12:31:45.522Z,93.60
2019-04-25T12:34:14.282Z,93.00
2019-04-25T12:36:44.311Z,92.20
2019-04-25T12:39:13.972Z,92.40
2019-04-25T12:41:44.232Z,95.80
2019-04-25T12:44:31.256Z,94.30
2019-04-25T12:47:01.354Z,93.40
2019-04-25T12:49:29.844Z,92.50
2019-04-25T12:52:17.727Z,93.50
2019-04-25T12:54:47.467Z,92.60
2019-04-25T12:57:18.239Z,92.40
2019-04-25T12:59:47.364Z,92.60
2019-04-25T13:02:16.161Z,94.80
2019-04-25T13:04:44.733Z,92.30
2019-04-25T13:07:13.698Z,93.60
2019-04-25T13:09:42.370Z,91.40
2019-04-25T13:12:11.136Z,91.30
2019-04-25T13:14:39.653Z,93.60
2019-04-25T13:17:08.724Z,91.40
2019-04-25T13:19:38.071Z,91.60
2019-04-25T13:22:06.589Z,91.60
2019-04-25T13:24:35.167Z,88.80
2019-04-25T13:27:23.143Z,91.30
2019-04-25T13:29:57.246Z,92.60
2019-04-25T13:32:40.025Z,86.30
2019-04-25T13:35:26.564Z,86.90
2019-04-25T13:37:58.236Z,84.90
2019-04-25T13:40:27.730Z,84.10
2019-04-25T13:42:56.448Z,84.50
2019-04-25T13:45:25.056Z,85.20
2019-04-25T13:47:53.594Z,84.60
2019-04-25T13:50:23.968Z,87.60
2019-04-25T13:52:53.365Z,83.50
2019-04-25T13:55:23.696Z,83.90
2019-04-25T13:57:53.077Z,87.30
2019-04-25T14:00:24.828Z,87.10
2019-04-25T14:02:54.011Z,85.90
2019-04-25T14:05:24.885Z,88.90
2019-04-25T14:07:58.350Z,86.50
2019-04-25T14:10:26.797Z,89.00
2019-04-25T14:12:55.315Z,84.10
2019-04-25T14:15:25.452Z,85.40
2019-04-25T14:18:10.796Z,87.40
2019-04-25T14:20:43.439Z,87.30
2019-04-25T14:23:13.469Z,86.30
2019-04-25T14:25:42.220Z,88.30
2019-04-25T14:28:10.812Z,89.00
2019-04-25T14:30:39.794Z,86.90
2019-04-25T14:33:08.539Z,86.50
2019-04-25T14:35:37.159Z,86.30
2019-04-25T14:38:05.618Z,85.90
2019-04-25T14:40:34.081Z,87.00
2019-04-25T14:43:02.995Z,87.10
2019-04-25T14:45:43.030Z,87.50
2019-04-25T14:48:02.480Z,86.90
2019-04-25T14:50:31.817Z,87.30
2019-04-25T14:53:00.405Z,89.70
2019-04-25T14:55:36.446Z,88.50
2019-04-25T14:58:07.658Z,87.20
2019-04-25T15:00:38.410Z,88.90
2019-04-25T15:03:07.120Z,88.10
2019-04-25T15:05:35.655Z,87.40
2019-04-25T15:08:04.440Z,86.70
2019-04-25T15:10:34.049Z,86.70
2019-04-25T15:13:03.360Z,90.10
2019-04-25T15:15:31.823Z,89.90
2019-04-25T15:18:00.282Z,88.60
2019-04-25T15:20:28.828Z,87.40
2019-04-25T15:22:57.394Z,89.70
2019-04-25T15:25:26.215Z,88.70
2019-04-25T15:27:54.823Z,90.10
2019-04-25T15:30:31.085Z,90.20
2019-04-25T15:32:59.632Z,90.40
2019-04-25T15:35:32.444Z,89.80
2019-04-25T15:38:05.148Z,90.10
2019-04-25T15:40:44.199Z,88.50
2019-04-25T15:43:19.776Z,91.50
2019-04-25T15:45:58.955Z,90.10
2019-04-25T15:48:27.480Z,90.90
2019-04-25T15:50:56.195Z,90.20
2019-04-25T15:53:25.175Z,90.00
2019-04-25T15:55:54.254Z,90.20
2019-04-25T15:58:22.720Z,90.00
2019-04-25T16:00:51.203Z,90.90
2019-04-25T16:03:19.823Z,90.20
2019-04-25T16:05:48.648Z,90.10
2019-04-25T16:08:17.232Z,88.90
2019-04-25T16:10:45.684Z,89.50
2019-04-25T16:13:14.225Z,90.40
2019-04-25T16:15:42.689Z,90.00
2019-04-25T16:18:11.374Z,89.20
2019-04-25T16:20:41.372Z,88.90
2019-04-25T16:23:09.898Z,87.30
2019-04-25T16:25:38.593Z,87.90
2019-04-25T16:28:07.418Z,88.00
2019-04-25T16:30:41.319Z,90.30
2019-04-25T16:34:08.577Z,86.80
2019-04-25T16:37:14.498Z,88.50
2019-04-25T16:39:19.303Z,87.40
2019-04-25T16:41:54.728Z,88.10
2019-04-25T16:44:23.316Z,87.20
2019-04-25T16:46:53.454Z,88.90
2019-04-25T16:49:22.193Z,87.40
2019-04-25T16:51:50.759Z,87.10
2019-04-25T16:54:19.347Z,88.80
2019-04-25T16:56:47.817Z,88.60
2019-04-25T16:59:16.903Z,87.60
2019-04-25T17:01:45.436Z,86.90
2019-04-25T17:04:13.978Z,87.10
2019-04-25T17:06:42.863Z,87.90
2019-04-25T17:09:12.767Z,88.00
2019-04-25T17:11:43.847Z,87.30
2019-04-25T17:14:22.829Z,86.50
2019-04-25T17:16:52.943Z,87.60
2019-04-25T17:19:24.645Z,88.10
2019-04-25T17:21:53.247Z,88.00
2019-04-25T17:24:21.727Z,87.20
2019-04-25T17:26:52.525Z,86.30
2019-04-25T17:29:22.209Z,87.00
2019-04-25T17:31:52.399Z,87.10
2019-04-25T17:34:41.641Z,87.50
2019-04-25T17:37:12.449Z,86.40
2019-04-25T17:39:42.550Z,86.20
2019-04-25T17:42:11.216Z,87.30
2019-04-25T17:44:41.055Z,86.10
2019-04-25T17:47:09.595Z,87.00
2019-04-25T17:49:38.046Z,86.70
2019-04-25T17:52:06.576Z,87.00
2019-04-25T17:54:35.105Z,86.50
2019-04-25T17:57:03.815Z,87.00
2019-04-25T17:59:33.342Z,87.50
2019-04-25T18:02:02.556Z,86.60
2019-04-25T18:04:31.100Z,86.80
2019-04-25T18:06:59.820Z,87.40
2019-04-25T18:09:28.396Z,86.60
2019-04-25T18:11:56.865Z,86.20
2019-04-25T18:14:25.347Z,87.60
2019-04-25T18:16:54.045Z,87.80
2019-04-25T18:19:25.861Z,87.20
2019-04-25T18:21:56.067Z,87.10
2019-04-25T18:24:41.227Z,87.50
2019-04-25T18:27:14.140Z,88.70
2019-04-25T18:29:43.677Z,89.00
2019-04-25T18:32:12.348Z,88.70
2019-04-25T18:34:57.585Z,89.30
2019-04-25T18:37:27.797Z,89.70
2019-04-25T18:39:58.074Z,90.00
2019-04-25T18:42:30.955Z,90.30
2019-04-25T18:44:59.535Z,90.60
2019-04-25T18:47:27.990Z,90.20
2019-04-25T18:49:57.736Z,90.20
2019-04-25T18:52:34.191Z,90.30
2019-04-25T18:55:13.909Z,91.10
2019-04-25T18:57:54.304Z,90.50
2019-04-25T19:00:41.595Z,91.10
2019-04-25T19:03:22.947Z,90.70
2019-04-25T19:05:52.804Z,91.00
2019-04-25T19:08:21.632Z,90.60
2019-04-25T19:10:54.647Z,90.50
2019-04-25T19:13:24.802Z,90.40
2019-04-25T19:15:53.275Z,90.70
2019-04-25T19:18:23.304Z,90.40
2019-04-25T19:20:52.371Z,91.10
2019-04-25T19:23:20.947Z,92.10
2019-04-25T19:25:49.412Z,91.10
2019-04-25T19:28:21.156Z,91.40
2019-04-25T19:30:49.773Z,91.90
2019-04-25T19:33:34.696Z,91.50
2019-04-25T19:35:54.832Z,92.00
2019-04-25T19:38:23.294Z,91.50
2019-04-25T19:40:53.465Z,92.40
2019-04-25T19:43:32.348Z,92.20
2019-04-25T19:46:00.867Z,92.00
2019-04-25T19:48:29.588Z,91.10
2019-04-25T19:50:58.219Z,91.20
2019-04-25T19:53:26.790Z,91.00
2019-04-25T19:55:55.269Z,91.20
2019-04-25T19:58:23.888Z,91.00
2019-04-25T20:00:52.881Z,91.30
2019-04-25T20:03:23.116Z,90.60
2019-04-25T20:05:53.755Z,90.60
2019-04-25T20:08:43.424Z,92.00
2019-04-25T20:11:21.579Z,90.90
2019-04-25T20:13:51.208Z,91.10
2019-04-25T20:16:19.850Z,90.80
2019-04-25T20:18:49.765Z,91.00
2019-04-25T20:21:18.550Z,90.80
2019-04-25T20:23:48.444Z,91.10
2019-04-25T20:26:16.997Z,91.40
2019-04-25T20:28:46.196Z,91.20
2019-04-25T20:31:14.904Z,91.60
2019-04-25T20:33:43.450Z,91.40
2019-04-25T20:36:18.056Z,91.80
2019-04-25T20:38:42.438Z,91.40
2019-04-25T20:41:12.294Z,91.40
2019-04-25T20:43:40.948Z,91.70
2019-04-25T20:46:09.566Z,91.60
2019-04-25T20:48:38.163Z,92.00
2019-04-25T20:51:06.718Z,92.00
2019-04-25T20:53:35.204Z,93.00
2019-04-25T20:56:03.764Z,92.80
2019-04-25T20:58:32.235Z,92.50
2019-04-25T21:01:02.646Z,94.10
2019-04-25T21:03:31.171Z,95.00
2019-04-25T21:06:02.448Z,95.80
2019-04-25T21:08:30.954Z,94.20
2019-04-25T21:10:59.414Z,94.30
2019-04-25T21:13:36.190Z,94.90
2019-04-25T21:16:06.324Z,95.60
2019-04-25T21:18:40.012Z,94.70
2019-04-25T21:21:08.627Z,94.40
2019-04-25T21:23:37.116Z,93.60
2019-04-25T21:26:05.696Z,94.00
2019-04-25T21:28:34.289Z,93.80
2019-04-25T21:31:03.399Z,93.80
2019-04-25T21:33:32.050Z,93.20
2019-04-25T21:36:01.775Z,93.60
2019-04-25T21:38:30.626Z,93.30
2019-04-25T21:41:00.798Z,93.00
2019-04-25T21:43:31.096Z,93.20
2019-04-25T21:46:00.672Z,93.80
2019-04-25T21:48:29.582Z,93.30
2019-04-25T21:51:01.011Z,93.40
2019-04-25T21:53:29.652Z,93.60
2019-04-25T21:55:58.562Z,93.40
2019-04-25T21:58:28.283Z,93.90
2019-04-25T22:00:58.664Z,93.60
2019-04-25T22:03:27.562Z,93.30
2019-04-25T22:05:56.848Z,93.50
2019-04-25T22:08:25.560Z,93.60
2019-04-25T22:10:55.796Z,93.60
2019-04-25T22:13:24.578Z,93.30
2019-04-25T22:15:53.450Z,93.80
2019-04-25T22:18:22.285Z,93.50
2019-04-25T22:20:50.854Z,94.20
2019-04-25T22:23:19.879Z,94.10
2019-04-25T22:25:48.619Z,95.30
2019-04-25T22:28:17.436Z,94.80
2019-04-25T22:30:47.918Z,96.10
2019-04-25T22:33:34.381Z,96.60
2019-04-25T22:36:04.616Z,96.90
2019-04-25T22:38:33.166Z,97.50
2019-04-25T22:41:01.713Z,97.70
2019-04-25T22:43:32.234Z,97.70
2019-04-25T22:46:02.535Z,97.70
2019-04-25T22:48:33.569Z,98.30
2019-04-25T22:51:02.097Z,99.50
2019-04-25T22:53:30.639Z,99.90
2019-04-25T22:55:59.380Z,99.90
2019-04-25T22:58:27.867Z,99.90
2019-04-25T23:00:56.497Z,99.90
2019-04-25T23:03:26.618Z,99.90
2019-04-25T23:05:56.714Z,99.90
2019-04-25T23:08:25.450Z,99.90
2019-04-25T23:10:53.981Z,99.90
2019-04-25T23:13:22.477Z,99.90
2019-04-25T23:15:51.000Z,99.90
2019-04-25T23:18:19.944Z,99.90
2019-04-25T23:20:48.399Z,99.90
2019-04-25T23:23:17.067Z,99.90
2019-04-25T23:26:03.548Z,99.90
2019-04-25T23:28:34.391Z,99.90
2019-04-25T23:31:19.825Z,99.90
2019-04-25T23:33:48.483Z,99.90
2019-04-25T23:36:17.324Z,99.90
2019-04-25T23:38:45.926Z,99.90
2019-04-25T23:41:15.557Z,99.90
2019-04-25T23:43:44.480Z,99.90
2019-04-25T23:46:13.185Z,99.90
2019-04-25T23:48:42.601Z,99.90
2019-04-25T23:51:11.322Z,99.90
2019-04-25T23:53:40.157Z,99.90
2019-04-25T23:56:08.943Z,99.90
2019-04-25T23:58:37.911Z,99.90
